EST,Max TemperatureF,Mean TemperatureF,Min TemperatureF,Max Dew PointF,MeanDew PointF,Min DewpointF,Max Humidity, Mean Humidity, Min Humidity, Max Sea Level PressureIn, Mean Sea Level PressureIn, Min Sea Level PressureIn, Max VisibilityMiles, Mean VisibilityMiles, Min VisibilityMiles, Max Wind SpeedMPH, Mean Wind SpeedMPH, Max Gust SpeedMPH,PrecipitationIn, CloudCover, Events, WindDirDegrees
2011-11-1,50,42,33,30,29,25,87,68,37,30.33,30.27,30.21,10,10,10,8,5,,0.00,0,,320
2011-11-2,53,45,37,36,31,28,75,56,41,30.41,30.36,30.31,10,10,7,12,6,,0.00,0,,211
2011-11-3,55,48,42,37,31,19,81,52,25,30.27,30.10,29.94,10,10,10,13,8,,0.00,1,,197
2011-11-4,48,45,42,39,37,32,87,75,61,30.13,29.97,29.87,10,10,7,22,9,28,0.00,4,,7
2011-11-5,42,34,26,21,19,14,74,56,31,30.37,30.29,30.19,10,10,10,12,10,21,0.00,0,,85
2011-11-6,46,37,28,34,29,21,100,76,61,30.46,30.41,30.38,10,10,10,12,7,16,0.00,1,,172
2011-11-7,57,48,39,37,35,30,87,61,41,30.43,30.40,30.37,10,10,2,17,10,21,0.00,0,,269
2011-11-8,59,50,42,36,32,27,70,49,31,30.35,30.31,30.27,10,10,10,12,3,,0.00,0,,165
2011-11-9,57,50,44,43,40,34,87,70,44,30.24,30.14,30.05,10,10,10,14,9,18,0.00,1,,177
2011-11-10,48,38,28,48,35,21,100,85,64,30.03,29.91,29.81,10,8,0,28,14,41,0.00,5,Fog-Rain-Snow,281
2011-11-11,30,26,23,25,20,18,100,77,60,30.05,29.92,29.81,10,9,0,24,17,39,0.00,5,Snow,281
2011-11-12,53,42,30,27,22,16,64,48,32,30.19,30.14,30.06,10,10,10,29,18,34,0.00,0,,255
2011-11-13,55,50,44,34,24,10,57,38,22,30.18,30.12,30.06,10,10,10,21,13,31,0.00,1,,224
2011-11-14,66,56,46,48,45,36,82,68,49,30.08,30.04,29.98,10,10,10,26,16,33,0.00,1,,245
2011-11-15,57,52,46,54,50,46,100,95,82,30.06,30.01,29.95,10,6,0,22,14,30,0.11,8,Fog-Rain,268
2011-11-16,57,49,41,57,52,41,100,99,94,30.02,29.90,29.81,10,5,0,21,12,32,0.64,8,Fog-Rain,248
2011-11-17,39,32,23,39,29,18,100,91,64,30.09,29.96,29.90,10,8,0,23,13,33,0.09,8,Rain-Snow,303
2011-11-18,35,27,19,16,11,9,68,53,40,30.39,30.30,30.14,10,10,10,21,11,32,0.00,0,,242
2011-11-19,46,38,30,36,15,-6,71,40,14,30.37,30.32,30.28,10,10,10,17,9,24,0.00,0,,216
2011-11-20,55,50,44,52,47,39,100,83,77,30.33,30.29,30.24,10,10,7,25,15,31,0.00,5,Rain,248
2011-11-21,53,52,51,54,52,52,100,99,94,30.32,30.27,30.21,10,6,0,16,12,21,0.00,8,Fog-Rain,271
2011-11-22,55,53,51,55,52,52,100,100,100,30.26,30.16,29.95,10,1,0,21,8,32,0.18,8,Fog-Rain,173
2011-11-23,53,44,35,54,41,28,100,92,75,30.12,29.87,29.75,10,8,0,32,22,55,0.04,7,Fog-Rain,287
2011-11-24,50,41,32,30,26,19,81,58,42,30.35,30.28,30.16,10,10,10,20,15,26,0.00,0,,285
2011-11-25,55,47,39,25,18,12,56,34,22,30.36,30.32,30.29,10,10,10,17,13,18,0.00,0,,262
2011-11-26,53,50,46,43,26,14,87,42,24,30.35,30.29,30.21,10,10,10,15,11,23,0.00,0,,245
2011-11-27,57,52,46,46,45,43,93,80,67,30.21,30.15,30.10,10,10,10,22,14,40,0.00,4,,197
2011-11-28,53,50,48,52,50,48,100,99,94,30.10,30.07,29.99,10,4,0,15,11,28,0.08,8,Fog-Rain,138
2011-11-29,53,40,28,54,40,28,100,97,76,29.89,29.72,29.64,10,3,0,24,13,34,2.28,7,Fog-Rain-Snow,162
2011-11-30,30,28,26,28,26,23,100,93,80,30.04,29.80,29.65,10,9,0,28,22,37,0.00,6,Snow,281